Terminal Aerodrome Forecast
Issued by NWS

Home | Current Version | Previous Version | Text Only | Print | Product List | Glossary On
Versions: 1 2 3 4 5 6 7 8 9 10 11 12
869
FTUS46 KSGX 250520
TAFONT
TAF
KONT 250520Z 2506/2612 VRB05KT P6SM FEW018
     FM250800 VRB05KT P6SM OVC012
     FM251600 VRB05KT P6SM BKN020
     FM252000 26010G20KT P6SM BKN035
     FM260400 27007KT P6SM OVC025=

USA.gov is the U.S. government's official web portal to all federal, state and local government web resources and services.